createdAt,value
2018-06-28T00:03:09.577Z,4.39
2018-06-28T00:09:04.561Z,4.13
2018-06-28T00:14:59.512Z,3.66
2018-06-28T00:20:54.539Z,3.72
2018-06-28T00:26:49.578Z,3.73
2018-06-28T00:32:44.587Z,4.38
2018-06-28T00:38:39.519Z,3.98
2018-06-28T00:44:34.564Z,4.2
2018-06-28T00:50:29.577Z,4.23
2018-06-28T00:56:24.530Z,4.53
2018-06-28T01:02:19.548Z,3.37
2018-06-28T01:08:14.536Z,3.29
2018-06-28T01:14:09.600Z,3.35
2018-06-28T01:20:04.552Z,3.64
2018-06-28T01:25:59.563Z,3.95
2018-06-28T01:31:54.671Z,3.43
2018-06-28T01:37:49.588Z,3.76
2018-06-28T01:43:44.563Z,4.21
2018-06-28T01:49:39.668Z,4.17
2018-06-28T01:55:34.625Z,4.51
2018-06-28T02:01:29.612Z,4.39
2018-06-28T02:07:24.585Z,4.62
2018-06-28T02:13:19.627Z,5.24
2018-06-28T02:19:14.664Z,4.61
2018-06-28T02:25:09.888Z,4.49
2018-06-28T02:31:04.621Z,4.78
2018-06-28T02:36:59.632Z,4.86
2018-06-28T02:42:54.600Z,4.37
2018-06-28T02:48:49.626Z,4.14
2018-06-28T02:54:44.621Z,4
2018-06-28T03:00:39.667Z,4.19
2018-06-28T03:06:34.615Z,4.27
2018-06-28T03:12:29.630Z,4.87
2018-06-28T03:18:24.655Z,3.56
2018-06-28T03:24:19.643Z,4.13
2018-06-28T03:30:14.696Z,4.26
2018-06-28T03:36:09.660Z,3.81
2018-06-28T03:42:04.638Z,4.27
2018-06-28T03:47:59.685Z,5.46
2018-06-28T03:53:54.696Z,7.52
2018-06-28T03:59:49.647Z,8.11
2018-06-28T04:05:44.659Z,7.72
2018-06-28T04:11:39.637Z,7.57
2018-06-28T04:17:34.642Z,8.77
2018-06-28T04:23:29.671Z,8.21
2018-06-28T04:29:24.696Z,7.67
2018-06-28T04:35:19.720Z,7.86
2018-06-28T04:41:14.684Z,7.88
2018-06-28T04:47:09.708Z,7.89
2018-06-28T04:53:04.689Z,8
2018-06-28T04:58:59.712Z,7.57
2018-06-28T05:04:54.692Z,5.18
2018-06-28T05:10:49.733Z,7.34
2018-06-28T05:16:44.679Z,7.81
2018-06-28T05:22:39.785Z,7.53
2018-06-28T05:28:34.769Z,7.99
2018-06-28T05:34:29.739Z,7.15
2018-06-28T05:40:24.800Z,7.44
2018-06-28T05:46:19.714Z,8.51
2018-06-28T05:52:14.700Z,8.19
2018-06-28T05:58:09.742Z,8.9
2018-06-28T06:04:04.733Z,9.59
2018-06-28T06:09:59.735Z,9.43
2018-06-28T06:15:54.802Z,9.35
2018-06-28T06:21:49.758Z,11.34
2018-06-28T06:27:44.776Z,8.22
2018-06-28T06:33:39.802Z,7.88
2018-06-28T06:39:34.752Z,7.43
2018-06-28T06:45:29.774Z,8.85
2018-06-28T06:51:24.797Z,16.53
2018-06-28T06:57:19.782Z,20.37
2018-06-28T07:03:14.782Z,16.19
2018-06-28T07:09:09.814Z,16
2018-06-28T07:15:04.811Z,7.27
2018-06-28T07:20:59.787Z,7.6
2018-06-28T07:26:54.754Z,6.85
2018-06-28T07:32:49.831Z,4.97
2018-06-28T07:38:44.815Z,6.04
2018-06-28T07:44:39.791Z,6.85
2018-06-28T07:50:34.777Z,5.66
2018-06-28T07:56:29.806Z,4.8
2018-06-28T08:02:24.790Z,4.24
2018-06-28T08:08:19.826Z,4.43
2018-06-28T08:14:14.837Z,5.12
2018-06-28T08:20:09.778Z,4.78
2018-06-28T08:26:04.807Z,6.8
2018-06-28T08:31:59.873Z,5.26
2018-06-28T08:37:54.803Z,5.53
2018-06-28T08:43:49.817Z,6.16
2018-06-28T08:49:44.852Z,7.01
2018-06-28T08:55:39.816Z,5.42
2018-06-28T09:01:34.872Z,5.38
2018-06-28T09:07:29.821Z,4.61
2018-06-28T09:13:24.896Z,3.48
2018-06-28T09:19:19.832Z,3.1
2018-06-28T09:25:14.884Z,3.01
2018-06-28T09:31:09.829Z,3.28
2018-06-28T09:37:04.820Z,3.03
2018-06-28T09:42:59.951Z,2.93
2018-06-28T09:48:54.876Z,1.95
2018-06-28T09:54:50.127Z,2.22
2018-06-28T10:00:44.943Z,1.39
2018-06-28T10:06:39.955Z,1.52
2018-06-28T10:12:34.926Z,1.46
2018-06-28T10:18:29.889Z,2.3
2018-06-28T10:24:24.845Z,2.33
2018-06-28T10:30:19.875Z,1.83
2018-06-28T10:36:14.903Z,1.83
2018-06-28T10:42:09.877Z,2.15
2018-06-28T10:48:04.901Z,1.85
2018-06-28T10:53:59.989Z,1.21
2018-06-28T10:59:54.923Z,1.18
2018-06-28T11:05:49.904Z,1.59
2018-06-28T11:11:44.936Z,1.3
2018-06-28T11:17:39.948Z,1.42
2018-06-28T11:23:34.899Z,1.25
2018-06-28T11:29:29.941Z,1.49
2018-06-28T11:35:24.935Z,1.02
2018-06-28T11:41:20.007Z,0.93
2018-06-28T11:47:14.957Z,1.03
2018-06-28T11:53:09.974Z,0.93
2018-06-28T11:59:04.919Z,0.96
2018-06-28T12:04:59.967Z,1.03
2018-06-28T12:10:54.962Z,0.73
2018-06-28T12:16:49.956Z,0.73
2018-06-28T12:22:44.988Z,0.72
2018-06-28T12:28:39.961Z,0.81
2018-06-28T12:34:34.941Z,0.69
2018-06-28T12:40:29.974Z,0.79
2018-06-28T12:46:25.002Z,1.01
2018-06-28T12:52:20.012Z,0.94
2018-06-28T12:58:14.946Z,0.9
2018-06-28T13:04:09.967Z,0.78
2018-06-28T13:10:05.157Z,1.9
2018-06-28T13:16:00.005Z,5.11
2018-06-28T13:21:54.974Z,2
2018-06-28T13:27:50.055Z,1.75
2018-06-28T13:33:45.055Z,1.57
2018-06-28T13:39:39.983Z,1.46
2018-06-28T13:45:35.027Z,2.05
2018-06-28T13:51:30.057Z,2.21
2018-06-28T13:57:24.985Z,1.76
2018-06-28T14:03:20.031Z,1.12
2018-06-28T14:09:15.050Z,1.37
2018-06-28T14:15:10.028Z,1.64
2018-06-28T14:21:05.044Z,1.84
2018-06-28T14:27:00.009Z,1.82
2018-06-28T14:32:55.018Z,1.71
2018-06-28T14:38:50.018Z,1.51
2018-06-28T14:44:45.024Z,1.11
2018-06-28T14:50:40.080Z,1.11
2018-06-28T14:56:35.033Z,1.45
2018-06-28T15:02:30.065Z,1.15
2018-06-28T15:08:25.101Z,0.95
2018-06-28T15:14:20.075Z,1.62
2018-06-28T15:20:15.242Z,1.61
2018-06-28T15:26:10.065Z,1.54
2018-06-28T15:32:05.077Z,1.4
2018-06-28T15:38:00.059Z,1.47
2018-06-28T15:43:55.090Z,1.16
2018-06-28T15:49:50.125Z,1.07
2018-06-28T15:55:45.073Z,1.11
2018-06-28T16:01:40.086Z,1.33
2018-06-28T16:07:35.063Z,1.07
2018-06-28T16:13:30.054Z,1
2018-06-28T16:19:25.120Z,2.32
2018-06-28T16:25:20.144Z,2.73
2018-06-28T16:31:15.066Z,1.59
2018-06-28T16:37:10.099Z,1.33
2018-06-28T16:43:05.114Z,2.14
2018-06-28T16:49:00.141Z,1.64
2018-06-28T16:54:55.194Z,1.13
2018-06-28T17:00:50.125Z,1.02
2018-06-28T17:06:45.153Z,0.72
2018-06-28T17:12:40.180Z,0.9
2018-06-28T17:18:35.130Z,0.87
2018-06-28T17:24:30.122Z,0.93
2018-06-28T17:30:25.122Z,0.88
2018-06-28T17:36:20.161Z,0.99
2018-06-28T17:42:15.136Z,1.23
2018-06-28T17:48:10.192Z,0.88
2018-06-28T17:54:05.151Z,0.97
2018-06-28T18:00:00.254Z,1.03
2018-06-28T18:05:55.171Z,1.02
2018-06-28T18:11:50.147Z,0.97
2018-06-28T18:17:45.222Z,1.07
2018-06-28T18:23:40.205Z,1.4
2018-06-28T18:29:35.218Z,1.15
2018-06-28T18:35:30.397Z,1.17
2018-06-28T18:41:25.203Z,1.41
2018-06-28T18:47:20.192Z,1.25
2018-06-28T18:53:15.203Z,1.13
2018-06-28T18:59:10.232Z,1.1
2018-06-28T19:05:05.254Z,1.25
2018-06-28T19:11:00.226Z,1.38
2018-06-28T19:16:55.185Z,1.43
2018-06-28T19:22:50.183Z,1.33
2018-06-28T19:28:46.839Z,1.02
2018-06-28T19:34:40.198Z,1.54
2018-06-28T19:40:36.027Z,1.66
2018-06-28T19:46:30.235Z,1.37
2018-06-28T19:52:25.390Z,1.41
2018-06-28T19:58:20.207Z,1.22
2018-06-28T20:04:15.268Z,1.59
2018-06-28T20:10:10.232Z,1.59
2018-06-28T20:16:05.201Z,1.11
2018-06-28T20:22:00.243Z,1.55
2018-06-28T20:27:55.238Z,1.95
2018-06-28T20:33:50.247Z,1.98
2018-06-28T20:39:45.222Z,1.9
2018-06-28T20:45:40.255Z,2.14
2018-06-28T20:51:35.320Z,1.58
2018-06-28T20:57:30.240Z,2.14
2018-06-28T21:03:25.304Z,1.92
2018-06-28T21:09:20.246Z,3.01
2018-06-28T21:15:15.360Z,4.98
2018-06-28T21:21:10.306Z,5.65
2018-06-28T21:27:05.478Z,6.37
2018-06-28T21:33:00.363Z,7.44
2018-06-28T21:38:55.303Z,6.71
2018-06-28T21:44:50.305Z,7.29
2018-06-28T21:50:45.291Z,7.24
2018-06-28T21:56:40.389Z,6.51
2018-06-28T22:02:35.304Z,6.43
2018-06-28T22:08:30.296Z,6.03
2018-06-28T22:14:25.316Z,5.83
2018-06-28T22:20:20.314Z,5.18
2018-06-28T22:26:15.332Z,5.87
2018-06-28T22:32:10.310Z,5.62
2018-06-28T22:38:05.339Z,5.21
2018-06-28T22:44:00.321Z,5.34
2018-06-28T22:49:55.359Z,5.95
2018-06-28T22:55:50.328Z,5.38
2018-06-28T23:01:45.336Z,4.91
2018-06-28T23:07:40.398Z,3.56
2018-06-28T23:13:35.328Z,4.32
2018-06-28T23:19:30.343Z,3.85
2018-06-28T23:25:25.386Z,4.52
2018-06-28T23:31:20.383Z,3.75
2018-06-28T23:37:15.352Z,3.76
2018-06-28T23:43:10.357Z,3.87
2018-06-28T23:49:05.385Z,3.4
2018-06-28T23:55:00.369Z,3.76
